Time;durP1;ratioP1;P1;durP2;ratioP2;P2;SDS_P1;SDS_P2;PMS_P1;PMS_P2;Temp;Humidity;BMP_temperature;BMP_pressure;BME280_temperature;BME280_humidity;BME280_pressure;Samples;Min_cycle;Max_cycle;Signal;HPM_P1;HPM_P2
2023/05/08 00:00:39;;;;;;;21.97;19.57;;;15.80;99.90;;;;;;5029362;28;20265;-73
2023/05/08 00:03:05;;;;;;;19.93;17.90;;;15.80;99.90;;;;;;5037736;28;20182;-73
2023/05/08 00:05:31;;;;;;;20.23;18.13;;;15.70;99.90;;;;;;5048759;28;20213;-72
2023/05/08 00:08:00;;;;;;;20.50;18.40;;;15.70;99.90;;;;;;5048677;28;20399;-73
2023/05/08 00:10:27;;;;;;;19.90;17.90;;;15.70;99.90;;;;;;5048647;28;20182;-73
2023/05/08 00:12:53;;;;;;;20.27;18.23;;;15.70;99.90;;;;;;5049070;28;20421;-72
2023/05/08 00:15:18;;;;;;;20.43;18.50;;;15.70;99.90;;;;;;5014295;28;20474;-73
2023/05/08 00:17:44;;;;;;;19.83;17.73;;;15.70;99.90;;;;;;5048793;28;20178;-73
2023/05/08 00:20:11;;;;;;;20.17;18.17;;;15.70;99.90;;;;;;5048703;28;20547;-73
2023/05/08 00:22:36;;;;;;;21.53;19.37;;;15.70;99.90;;;;;;5049141;28;20219;-73
2023/05/08 00:25:04;;;;;;;20.93;18.77;;;15.70;99.90;;;;;;5014099;28;20936;-72
2023/05/08 00:27:30;;;;;;;19.70;17.67;;;15.70;99.90;;;;;;5030851;28;20181;-71
2023/05/08 00:29:56;;;;;;;20.73;18.63;;;15.70;99.90;;;;;;5043819;28;20416;-73
2023/05/08 00:32:23;;;;;;;19.53;17.63;;;15.60;99.90;;;;;;5040590;28;20899;-72
2023/05/08 00:34:48;;;;;;;20.60;18.43;;;15.60;99.90;;;;;;5048106;28;20456;-73
2023/05/08 00:37:14;;;;;;;20.53;18.33;;;15.60;99.90;;;;;;5030712;28;20462;-72
2023/05/08 00:39:40;;;;;;;21.93;19.60;;;15.50;99.90;;;;;;5030456;28;20178;-71
2023/05/08 00:42:06;;;;;;;21.30;19.20;;;15.60;99.90;;;;;;5048669;28;20531;-72
2023/05/08 00:44:31;;;;;;;21.00;18.90;;;15.50;99.90;;;;;;5048152;28;20420;-73
2023/05/08 00:46:57;;;;;;;21.83;19.63;;;15.50;99.90;;;;;;5034887;28;20261;-73
2023/05/08 00:49:24;;;;;;;22.50;20.20;;;15.50;99.90;;;;;;5026728;28;20182;-72
2023/05/08 00:51:53;;;;;;;20.27;18.17;;;15.50;99.90;;;;;;5028595;28;20417;-73
2023/05/08 00:54:20;;;;;;;20.77;18.67;;;15.50;99.90;;;;;;5028109;28;20548;-72
2023/05/08 00:56:46;;;;;;;20.50;18.40;;;15.50;99.90;;;;;;5028218;28;20443;-73
2023/05/08 00:59:15;;;;;;;19.43;17.43;;;15.40;99.90;;;;;;5028407;28;20416;-73
2023/05/08 01:01:42;;;;;;;20.60;16.83;;;15.40;99.90;;;;;;5010614;28;20504;-73
2023/05/08 01:04:08;;;;;;;21.40;18.17;;;15.50;99.90;;;;;;5027982;28;20417;-73
2023/05/08 01:06:35;;;;;;;20.63;18.43;;;15.50;99.90;;;;;;5010370;28;20455;-73
2023/05/08 01:09:02;;;;;;;19.33;17.43;;;15.40;99.90;;;;;;5030600;28;20423;-72
2023/05/08 01:12:03;;;;;;;20.83;18.23;;;15.40;99.90;;;;;;5047905;28;20791;-73
2023/05/08 01:14:57;;;;;;;21.07;18.87;;;15.40;99.90;;;;;;5046323;28;20459;-73
2023/05/08 01:17:32;;;;;;;20.17;18.17;;;15.30;99.90;;;;;;5029894;28;20500;-73
2023/05/08 01:20:19;;;;;;;20.97;18.90;;;15.40;99.90;;;;;;5047802;28;20522;-72
2023/05/08 01:23:18;;;;;;;19.60;17.60;;;15.40;99.90;;;;;;5048121;28;20885;-73
2023/05/08 01:26:21;;;;;;;21.00;18.90;;;15.40;99.90;;;;;;5048011;28;20897;-73
2023/05/08 01:28:52;;;;;;;20.20;18.00;;;15.30;99.90;;;;;;5047753;28;20412;-73
2023/05/08 01:31:36;;;;;;;21.17;18.90;;;15.30;99.90;;;;;;5047724;28;20417;-73
2023/05/08 01:34:10;;;;;;;19.60;17.70;;;15.30;99.90;;;;;;5041449;28;20979;-72
2023/05/08 01:36:55;;;;;;;19.47;17.47;;;15.20;99.90;;;;;;5042163;28;21114;-73
2023/05/08 01:39:25;;;;;;;21.90;19.47;;;15.30;99.90;;;;;;5051435;28;20782;-72
2023/05/08 01:42:07;;;;;;;20.80;18.70;;;15.30;99.90;;;;;;5043923;28;20413;-72
2023/05/08 01:44:40;;;;;;;20.77;18.67;;;15.30;99.90;;;;;;5030763;28;20424;-72
2023/05/08 01:47:09;;;;;;;20.77;18.77;;;15.30;99.90;;;;;;5036774;28;20463;-73
2023/05/08 01:49:43;;;;;;;20.57;18.47;;;15.20;99.90;;;;;;5031720;28;20448;-73
2023/05/08 01:52:20;;;;;;;21.20;19.03;;;15.20;99.90;;;;;;5031772;28;20452;-73
2023/05/08 01:55:04;;;;;;;19.80;17.80;;;15.20;99.90;;;;;;5013291;28;20471;-73
2023/05/08 01:57:33;;;;;;;20.60;18.37;;;15.30;99.90;;;;;;5013504;28;21081;-73
2023/05/08 02:00:01;;;;;;;20.97;18.97;;;15.30;99.90;;;;;;5031152;28;20441;-73
2023/05/08 02:02:29;;;;;;;20.77;18.67;;;15.30;99.90;;;;;;5031337;28;20502;-72
2023/05/08 02:04:55;;;;;;;20.90;18.90;;;15.20;99.90;;;;;;5030643;28;20449;-73
2023/05/08 02:07:22;;;;;;;20.57;18.50;;;15.20;99.90;;;;;;5013136;28;20855;-72
2023/05/08 02:09:49;;;;;;;20.40;18.30;;;15.20;99.90;;;;;;5039862;28;20491;-73
2023/05/08 02:12:16;;;;;;;21.20;19.07;;;15.20;99.90;;;;;;5051010;28;20420;-73
2023/05/08 02:14:44;;;;;;;20.67;18.53;;;15.20;99.90;;;;;;5050489;28;20452;-73
2023/05/08 02:17:13;;;;;;;20.93;18.87;;;15.20;99.90;;;;;;5032667;28;20804;-74
2023/05/08 02:19:40;;;;;;;26.30;19.33;;;15.20;99.90;;;;;;5050636;28;20440;-73
2023/05/08 02:22:07;;;;;;;20.70;18.70;;;15.10;99.90;;;;;;5051169;28;20839;-73
2023/05/08 02:24:35;;;;;;;22.20;19.30;;;15.10;99.90;;;;;;5032681;28;20515;-73
2023/05/08 02:27:01;;;;;;;19.87;17.80;;;15.10;99.90;;;;;;5050470;28;20507;-71
2023/05/08 02:29:29;;;;;;;21.47;19.37;;;15.10;99.90;;;;;;5050422;28;20420;-74
2023/05/08 02:31:56;;;;;;;20.00;17.90;;;15.10;99.90;;;;;;5050541;28;20511;-72
2023/05/08 02:34:23;;;;;;;20.53;18.40;;;15.10;99.90;;;;;;5050263;28;20452;-73
2023/05/08 02:36:53;;;;;;;20.63;18.63;;;15.10;99.90;;;;;;5050186;28;20432;-73
2023/05/08 02:39:20;;;;;;;19.60;17.70;;;15.10;99.90;;;;;;5050404;28;20444;-73
2023/05/08 02:41:46;;;;;;;19.73;17.73;;;15.00;99.90;;;;;;5039087;28;20417;-72
2023/05/08 02:44:13;;;;;;;21.50;19.23;;;15.00;99.90;;;;;;5048612;28;20439;-73
2023/05/08 02:47:08;;;;;;;19.97;17.97;;;15.00;99.90;;;;;;5039375;28;20441;-73
2023/05/08 02:49:49;;;;;;;22.17;19.87;;;15.00;99.90;;;;;;5012286;28;20417;-73
2023/05/08 02:52:29;;;;;;;19.53;17.50;;;15.00;99.90;;;;;;5012753;28;20512;-72
2023/05/08 02:55:03;;;;;;;21.23;18.30;;;15.00;99.90;;;;;;5030069;28;20461;-72
2023/05/08 02:57:40;;;;;;;20.53;18.40;;;15.00;99.90;;;;;;5030098;28;20412;-73
2023/05/08 03:00:25;;;;;;;21.47;19.37;;;15.00;99.90;;;;;;5030032;28;20408;-73
2023/05/08 03:03:39;;;;;;;19.87;17.97;;;15.00;99.90;;;;;;5030286;28;20520;-72
2023/05/08 03:06:14;;;;;;;20.47;18.30;;;15.00;99.90;;;;;;5008492;28;20456;-72
2023/05/08 03:08:41;;;;;;;20.87;18.77;;;15.00;99.90;;;;;;5029956;28;20417;-72
2023/05/08 03:11:11;;;;;;;19.97;17.97;;;15.00;99.90;;;;;;5029837;28;20914;-73
2023/05/08 03:13:39;;;;;;;20.60;18.50;;;15.00;99.90;;;;;;5029703;28;20457;-73
2023/05/08 03:16:08;;;;;;;19.53;17.53;;;14.90;99.90;;;;;;5029991;28;20447;-73
2023/05/08 03:18:43;;;;;;;21.23;19.00;;;14.90;99.90;;;;;;5029746;28;20812;-72
2023/05/08 03:21:12;;;;;;;19.97;17.97;;;14.90;99.90;;;;;;5029636;28;20878;-73
2023/05/08 03:23:39;;;;;;;21.57;19.27;;;14.90;99.90;;;;;;5029637;28;20508;-72
2023/05/08 03:26:07;;;;;;;20.43;18.37;;;14.90;99.90;;;;;;5011987;28;20428;-73
2023/05/08 03:28:35;;;;;;;19.20;17.23;;;14.90;99.90;;;;;;5029485;28;20425;-73
2023/05/08 03:31:03;;;;;;;19.53;17.53;;;14.90;99.90;;;;;;5029602;28;20433;-73
2023/05/08 03:33:31;;;;;;;20.70;18.63;;;14.90;99.90;;;;;;5029331;28;20459;-73
2023/05/08 03:35:58;;;;;;;18.63;16.70;;;14.90;99.90;;;;;;5011880;28;20456;-71
2023/05/08 03:38:24;;;;;;;19.77;17.20;;;14.90;99.90;;;;;;5029247;28;20555;-73
2023/05/08 03:40:50;;;;;;;19.87;17.07;;;15.00;99.90;;;;;;5034757;28;20511;-74
2023/05/08 03:43:17;;;;;;;19.30;17.50;;;15.00;99.90;;;;;;5046424;28;20186;-73
2023/05/08 03:45:44;;;;;;;19.03;17.07;;;15.00;99.90;;;;;;5032416;28;20738;-73
2023/05/08 03:48:12;;;;;;;18.13;16.33;;;15.00;99.90;;;;;;5047673;28;20482;-72
2023/05/08 03:50:38;;;;;;;21.30;18.57;;;14.90;99.90;;;;;;5047765;28;20420;-73
2023/05/08 03:53:04;;;;;;;20.07;18.10;;;14.90;99.90;;;;;;5048950;28;20420;-71
2023/05/08 03:55:30;;;;;;;20.10;17.27;;;14.90;99.90;;;;;;5031286;28;20468;-73
2023/05/08 03:57:59;;;;;;;20.60;18.30;;;14.80;99.90;;;;;;5048779;28;20420;-74
2023/05/08 04:00:35;;;;;;;20.10;18.07;;;14.80;99.90;;;;;;5048417;28;20433;-73
2023/05/08 04:03:16;;;;;;;19.40;17.47;;;14.80;99.90;;;;;;5038526;28;20426;-72
2023/05/08 04:06:10;;;;;;;21.20;18.90;;;14.80;99.90;;;;;;5037214;28;20444;-73
2023/05/08 04:09:17;;;;;;;20.13;18.03;;;14.80;99.90;;;;;;5029599;28;20425;-73
2023/05/08 04:12:04;;;;;;;21.80;18.13;;;14.80;99.90;;;;;;5029249;28;20451;-73
2023/05/08 04:14:42;;;;;;;23.33;18.83;;;14.70;99.90;;;;;;5027631;28;20494;-73
2023/05/08 04:17:11;;;;;;;19.00;17.10;;;14.70;99.90;;;;;;5030848;28;20848;-73
2023/05/08 04:19:42;;;;;;;21.23;19.00;;;14.70;99.90;;;;;;5048945;28;20474;-73
2023/05/08 04:22:10;;;;;;;19.03;17.20;;;14.70;99.90;;;;;;5049170;28;20413;-74
2023/05/08 04:24:41;;;;;;;19.93;17.83;;;14.70;99.90;;;;;;5030843;28;20439;-74
2023/05/08 04:27:08;;;;;;;20.00;16.40;;;14.70;99.90;;;;;;5046229;28;20424;-73
2023/05/08 04:29:35;;;;;;;18.80;16.90;;;14.70;99.90;;;;;;5036947;28;20424;-73
2023/05/08 04:32:02;;;;;;;19.57;17.57;;;14.70;99.90;;;;;;5027867;28;20457;-73
2023/05/08 04:34:28;;;;;;;19.87;17.77;;;14.70;99.90;;;;;;5027363;28;20489;-73
2023/05/08 04:36:53;;;;;;;19.13;17.13;;;14.70;99.90;;;;;;5027258;28;20472;-73
2023/05/08 04:39:21;;;;;;;19.73;17.63;;;14.80;99.90;;;;;;5028786;28;20183;-73
2023/05/08 04:41:47;;;;;;;18.40;16.60;;;14.70;99.90;;;;;;5037373;28;20239;-73
2023/05/08 04:44:13;;;;;;;20.03;18.00;;;14.80;99.90;;;;;;5028659;28;20818;-73
2023/05/08 04:46:39;;;;;;;21.13;18.93;;;14.80;99.90;;;;;;5042220;28;20448;-73
2023/05/08 04:49:04;;;;;;;20.40;18.20;;;14.80;99.90;;;;;;5039792;28;20197;-72
2023/05/08 04:51:30;;;;;;;20.07;18.00;;;14.80;99.90;;;;;;5028316;28;20594;-72
2023/05/08 04:53:56;;;;;;;19.37;17.33;;;14.80;99.90;;;;;;5026985;28;20876;-72
2023/05/08 04:56:22;;;;;;;19.23;16.93;;;14.80;99.90;;;;;;5028687;28;20494;-72
2023/05/08 04:58:48;;;;;;;19.40;17.40;;;14.80;99.90;;;;;;5028979;28;20276;-72
2023/05/08 05:01:13;;;;;;;18.87;16.87;;;14.90;99.90;;;;;;5040290;28;20554;-72
2023/05/08 05:03:39;;;;;;;21.23;17.23;;;14.90;99.90;;;;;;5047768;28;20208;-73
2023/05/08 05:06:05;;;;;;;20.37;18.27;;;14.90;99.90;;;;;;5041490;28;20222;-72
2023/05/08 05:08:31;;;;;;;20.83;18.33;;;14.90;99.90;;;;;;5037646;28;20186;-72
2023/05/08 05:10:56;;;;;;;18.37;16.47;;;14.90;99.90;;;;;;5027114;28;20665;-73
2023/05/08 05:13:22;;;;;;;18.57;16.60;;;14.90;99.90;;;;;;5031425;28;20427;-72
2023/05/08 05:15:50;;;;;;;16.73;15.13;;;15.00;99.90;;;;;;5044054;28;20746;-73
2023/05/08 05:18:16;;;;;;;18.30;15.93;;;15.00;99.90;;;;;;5041027;28;20190;-73
2023/05/08 05:20:41;;;;;;;16.80;15.10;;;15.10;99.90;;;;;;5041785;28;20423;-73
2023/05/08 05:23:07;;;;;;;18.93;17.03;;;15.10;99.90;;;;;;5049314;28;20435;-73
2023/05/08 05:25:33;;;;;;;17.77;16.07;;;15.20;99.90;;;;;;5041355;28;20206;-72
2023/05/08 05:27:59;;;;;;;18.90;16.90;;;15.20;99.90;;;;;;5038622;28;20181;-73
2023/05/08 05:30:25;;;;;;;17.47;15.80;;;15.20;99.90;;;;;;5028902;28;20413;-73
2023/05/08 05:32:50;;;;;;;18.40;16.30;;;15.30;99.90;;;;;;5030288;28;20193;-73
2023/05/08 05:35:16;;;;;;;18.33;16.30;;;15.30;99.90;;;;;;5029759;28;20289;-72
2023/05/08 05:37:42;;;;;;;17.60;16.00;;;15.40;99.90;;;;;;5030114;28;20692;-73
2023/05/08 05:40:08;;;;;;;15.57;14.07;;;15.40;99.90;;;;;;5030130;28;20178;-73
2023/05/08 05:42:34;;;;;;;14.93;13.40;;;15.40;99.90;;;;;;5030306;28;20167;-73
2023/05/08 05:45:00;;;;;;;14.00;12.63;;;15.50;99.90;;;;;;5029776;28;20444;-72
2023/05/08 05:47:26;;;;;;;14.00;12.70;;;15.50;99.90;;;;;;5046615;28;20189;-72
2023/05/08 05:49:52;;;;;;;13.70;12.30;;;15.50;99.90;;;;;;5047190;28;20423;-72
2023/05/08 05:52:17;;;;;;;13.83;12.53;;;15.60;99.90;;;;;;5041340;28;20185;-73
2023/05/08 05:54:45;;;;;;;13.63;12.27;;;15.60;99.90;;;;;;5045933;28;20241;-72
2023/05/08 05:57:12;;;;;;;12.87;11.67;;;15.60;99.90;;;;;;5043536;28;20405;-72
2023/05/08 05:59:42;;;;;;;12.53;11.33;;;15.70;99.90;;;;;;5041152;28;20501;-72
2023/05/08 06:02:09;;;;;;;12.50;11.30;;;15.70;99.90;;;;;;5045194;28;20438;-73
2023/05/08 06:04:35;;;;;;;12.03;10.50;;;15.80;99.90;;;;;;5003298;28;1092842;-73
2023/05/08 06:07:00;;;;;;;11.83;10.63;;;15.80;99.90;;;;;;5050185;28;20609;-74
2023/05/08 06:09:26;;;;;;;12.70;11.50;;;15.80;99.90;;;;;;5032530;28;20503;-74
2023/05/08 06:11:52;;;;;;;15.03;13.53;;;15.90;99.90;;;;;;5050977;28;20658;-74
2023/05/08 06:14:17;;;;;;;13.80;12.60;;;15.90;99.90;;;;;;5050506;28;20205;-74
2023/05/08 06:16:43;;;;;;;13.80;12.50;;;16.00;99.90;;;;;;5051047;28;20190;-73
2023/05/08 06:19:09;;;;;;;12.13;10.60;;;16.00;99.90;;;;;;5050660;28;20178;-73
2023/05/08 06:21:35;;;;;;;12.43;11.20;;;16.00;99.90;;;;;;5032794;28;20435;-74
2023/05/08 06:24:01;;;;;;;13.83;12.53;;;16.10;99.90;;;;;;5032394;28;20712;-73
2023/05/08 06:26:26;;;;;;;12.87;11.67;;;16.00;99.90;;;;;;5024231;28;20241;-73
2023/05/08 06:28:52;;;;;;;11.73;10.63;;;16.00;99.90;;;;;;5034773;28;20178;-74
2023/05/08 06:31:18;;;;;;;13.70;12.33;;;16.00;99.90;;;;;;5029378;28;20178;-74
2023/05/08 06:33:43;;;;;;;13.03;11.43;;;16.00;99.90;;;;;;5030245;28;20210;-73
2023/05/08 06:36:09;;;;;;;11.03;9.93;;;16.00;99.90;;;;;;5032621;28;20948;-73
2023/05/08 06:38:35;;;;;;;11.23;10.13;;;16.00;99.90;;;;;;5041036;28;20189;-73
2023/05/08 06:41:01;;;;;;;11.57;10.43;;;16.00;99.90;;;;;;5041865;28;20918;-74
2023/05/08 06:43:26;;;;;;;10.33;9.20;;;16.00;99.90;;;;;;5031461;28;20205;-74
2023/05/08 06:45:52;;;;;;;10.07;9.17;;;16.00;99.90;;;;;;5045648;28;20197;-73
2023/05/08 06:48:18;;;;;;;10.10;9.20;;;16.00;99.90;;;;;;5038189;28;20184;-74
2023/05/08 06:50:44;;;;;;;11.80;10.57;;;16.00;99.90;;;;;;5031900;28;20666;-74
2023/05/08 06:53:09;;;;;;;12.67;9.40;;;16.00;99.90;;;;;;5015273;28;20181;-74
2023/05/08 06:55:35;;;;;;;10.67;9.63;;;16.00;99.90;;;;;;5027668;28;20214;-74
2023/05/08 06:58:01;;;;;;;11.03;9.93;;;16.00;99.90;;;;;;5031470;28;20207;-74
2023/05/08 07:00:27;;;;;;;11.00;9.90;;;16.10;99.90;;;;;;5042521;28;20533;-73
2023/05/08 07:02:52;;;;;;;10.83;9.73;;;16.10;99.90;;;;;;5031729;28;20562;-74
2023/05/08 07:05:18;;;;;;;10.77;9.67;;;16.10;99.90;;;;;;5049374;28;20796;-73
2023/05/08 07:07:45;;;;;;;10.70;9.60;;;16.10;99.90;;;;;;5031696;28;20257;-74
2023/05/08 07:10:10;;;;;;;9.13;8.27;;;16.10;99.90;;;;;;5043045;28;20420;-73
2023/05/08 07:12:36;;;;;;;9.57;8.67;;;16.10;99.90;;;;;;5050145;28;20482;-74
2023/05/08 07:15:03;;;;;;;10.27;9.30;;;16.10;99.90;;;;;;5049375;28;20816;-73
2023/05/08 07:17:29;;;;;;;8.87;8.07;;;16.00;99.90;;;;;;5049553;28;20512;-73
2023/05/08 07:19:55;;;;;;;9.07;8.17;;;16.00;99.90;;;;;;5049276;28;20482;-74
2023/05/08 07:22:21;;;;;;;10.07;8.80;;;16.10;99.90;;;;;;5049698;28;20916;-74
2023/05/08 07:24:46;;;;;;;9.60;8.70;;;16.10;99.90;;;;;;5048274;28;20873;-74
2023/05/08 07:27:13;;;;;;;9.17;8.37;;;16.10;99.90;;;;;;5038043;28;20197;-73
2023/05/08 07:29:40;;;;;;;9.03;8.23;;;16.20;99.90;;;;;;5028295;28;20185;-74
2023/05/08 07:32:09;;;;;;;9.50;8.43;;;16.20;99.90;;;;;;5037336;28;20524;-74
2023/05/08 07:34:35;;;;;;;9.43;8.53;;;16.20;99.90;;;;;;5030114;28;21000;-74
2023/05/08 07:37:00;;;;;;;8.90;8.10;;;16.30;99.90;;;;;;5049183;28;20428;-74
2023/05/08 07:39:26;;;;;;;10.27;9.17;;;16.30;99.90;;;;;;5014705;28;20260;-73
2023/05/08 07:41:51;;;;;;;8.17;7.37;;;16.20;99.90;;;;;;5049242;28;20272;-74
2023/05/08 07:44:17;;;;;;;11.60;8.20;;;16.30;99.90;;;;;;5047212;28;20223;-74
2023/05/08 07:46:43;;;;;;;9.40;7.93;;;16.30;99.90;;;;;;5041276;28;20217;-73
2023/05/08 07:49:08;;;;;;;9.43;8.03;;;16.30;99.90;;;;;;5037631;28;20212;-73
2023/05/08 07:51:34;;;;;;;8.67;7.80;;;16.40;99.90;;;;;;5039058;28;20188;-72
2023/05/08 07:54:00;;;;;;;9.33;7.63;;;16.40;99.90;;;;;;5042538;28;20284;-73
2023/05/08 07:56:26;;;;;;;9.70;7.70;;;16.40;99.90;;;;;;5040996;28;20986;-74
2023/05/08 07:58:52;;;;;;;9.50;8.43;;;16.40;99.90;;;;;;5014382;28;20575;-74
2023/05/08 08:01:17;;;;;;;8.87;7.83;;;16.50;99.90;;;;;;5048507;28;20441;-73
2023/05/08 08:03:46;;;;;;;8.50;6.90;;;16.50;99.90;;;;;;5048296;28;20642;-74
2023/05/08 08:06:13;;;;;;;7.77;6.97;;;16.50;99.90;;;;;;5040011;28;20225;-74
2023/05/08 08:08:39;;;;;;;7.87;7.17;;;16.50;99.90;;;;;;5048401;28;20432;-73
2023/05/08 08:11:05;;;;;;;9.47;6.90;;;16.60;99.90;;;;;;5030550;28;20459;-74
2023/05/08 08:13:34;;;;;;;8.37;7.57;;;16.60;99.90;;;;;;5042881;28;20459;-73
2023/05/08 08:16:02;;;;;;;7.90;7.10;;;16.60;99.90;;;;;;5040025;28;20511;-74
2023/05/08 08:18:28;;;;;;;7.83;6.83;;;16.60;99.90;;;;;;5048324;28;20408;-74
2023/05/08 08:20:54;;;;;;;8.40;7.60;;;16.70;99.90;;;;;;5041033;28;20424;-73
2023/05/08 08:23:20;;;;;;;9.00;7.80;;;16.60;99.90;;;;;;5039852;28;20446;-74
2023/05/08 08:25:45;;;;;;;7.63;6.47;;;16.70;99.90;;;;;;5042819;28;20749;-74
2023/05/08 08:28:11;;;;;;;6.57;5.80;;;16.70;99.90;;;;;;5030295;28;20183;-73
2023/05/08 08:30:37;;;;;;;6.47;5.87;;;16.80;99.90;;;;;;5048189;28;20201;-74
2023/05/08 08:33:04;;;;;;;6.50;5.90;;;16.80;99.90;;;;;;5048251;28;20170;-74
2023/05/08 08:35:32;;;;;;;9.00;5.80;;;16.80;99.90;;;;;;5030137;28;20221;-74
2023/05/08 08:37:57;;;;;;;7.13;6.50;;;16.80;99.90;;;;;;5047934;28;20409;-74
2023/05/08 08:40:23;;;;;;;7.40;6.70;;;16.90;99.90;;;;;;5039447;28;20466;-73
2023/05/08 08:42:49;;;;;;;7.33;6.63;;;16.90;99.90;;;;;;5048497;28;20170;-74
2023/05/08 08:45:14;;;;;;;6.73;6.13;;;16.90;99.90;;;;;;5047656;28;20198;-74
2023/05/08 08:47:43;;;;;;;7.30;6.23;;;16.90;99.90;;;;;;5010989;28;20618;-72
2023/05/08 08:50:12;;;;;;;8.27;7.57;;;16.90;99.90;;;;;;5028006;28;20174;-74
2023/05/08 08:52:46;;;;;;;8.57;7.67;;;16.90;99.90;;;;;;5028142;28;20474;-74
2023/05/08 08:55:16;;;;;;;7.67;7.00;;;17.00;99.90;;;;;;5028038;28;21020;-74
2023/05/08 08:58:11;;;;;;;7.37;6.77;;;17.00;99.90;;;;;;5028156;28;20821;-75
2023/05/08 09:00:37;;;;;;;7.83;7.17;;;17.00;99.90;;;;;;4976677;28;20425;-73
2023/05/08 09:03:06;;;;;;;7.70;7.00;;;17.00;99.90;;;;;;5028158;28;20447;-72
2023/05/08 09:05:32;;;;;;;7.00;6.40;;;17.00;99.90;;;;;;5027903;28;20484;-74
2023/05/08 09:07:59;;;;;;;8.37;7.13;;;17.10;99.90;;;;;;5028027;28;20471;-75
2023/05/08 09:10:25;;;;;;;6.37;5.77;;;17.10;99.90;;;;;;5042004;28;20614;-74
2023/05/08 09:12:51;;;;;;;6.63;6.13;;;17.10;99.90;;;;;;5048118;28;20504;-73
2023/05/08 09:15:17;;;;;;;10.03;7.77;;;17.10;99.90;;;;;;5047790;28;20594;-72
2023/05/08 09:17:43;;;;;;;7.37;6.77;;;17.10;99.90;;;;;;5047951;28;20404;-74
2023/05/08 09:20:09;;;;;;;7.20;5.90;;;17.20;99.90;;;;;;5047835;28;20634;-75
2023/05/08 09:22:36;;;;;;;6.70;6.10;;;17.10;99.90;;;;;;5047976;28;20221;-72
2023/05/08 09:25:02;;;;;;;6.30;5.80;;;17.20;99.90;;;;;;5044022;28;20444;-74
2023/05/08 09:27:29;;;;;;;6.00;5.50;;;17.20;99.90;;;;;;5024972;28;20436;-73
2023/05/08 09:30:01;;;;;;;6.20;5.70;;;17.30;99.90;;;;;;5031444;28;20421;-74
2023/05/08 09:32:31;;;;;;;6.37;5.83;;;17.30;99.90;;;;;;5038359;28;20429;-74
2023/05/08 09:34:57;;;;;;;6.50;5.90;;;17.40;99.90;;;;;;5044325;28;20483;-74
2023/05/08 09:37:24;;;;;;;6.87;6.33;;;17.40;99.90;;;;;;5029763;28;20932;-74
2023/05/08 09:39:50;;;;;;;5.57;5.07;;;17.50;99.90;;;;;;5047173;28;20416;-74
2023/05/08 09:42:16;;;;;;;5.67;5.13;;;17.50;99.90;;;;;;5047545;28;20401;-73
2023/05/08 09:44:49;;;;;;;6.10;5.60;;;17.50;99.90;;;;;;5047268;28;20174;-74
2023/05/08 09:47:15;;;;;;;6.37;5.70;;;17.50;99.90;;;;;;5013840;28;20218;-74
2023/05/08 09:50:01;;;;;;;6.03;5.53;;;17.50;99.90;;;;;;5027365;28;20472;-75
2023/05/08 09:52:28;;;;;;;6.30;5.77;;;17.50;99.90;;;;;;5027780;28;20950;-74
2023/05/08 09:55:01;;;;;;;5.70;5.20;;;17.50;99.90;;;;;;5027176;28;20534;-74
2023/05/08 09:57:28;;;;;;;6.23;5.13;;;17.50;99.90;;;;;;5010389;28;20453;-73
2023/05/08 10:00:11;;;;;;;5.57;5.07;;;17.50;99.90;;;;;;5031158;28;20895;-73
2023/05/08 10:02:39;;;;;;;6.97;5.93;;;17.50;99.90;;;;;;5030932;28;20958;-72
2023/05/08 10:05:26;;;;;;;5.37;4.97;;;17.60;99.90;;;;;;5030471;28;20452;-72
2023/05/08 10:07:52;;;;;;;5.40;4.90;;;17.60;99.90;;;;;;5042731;28;20472;-74
2023/05/08 10:10:25;;;;;;;6.90;6.30;;;17.60;99.90;;;;;;5031766;28;20725;-74
2023/05/08 10:12:53;;;;;;;6.60;4.73;;;17.60;99.90;;;;;;5032150;28;20268;-74
2023/05/08 10:15:23;;;;;;;6.13;5.60;;;17.60;99.90;;;;;;5041941;28;20456;-74
2023/05/08 10:18:05;;;;;;;5.33;4.83;;;17.60;99.90;;;;;;5050394;28;20412;-74
2023/05/08 10:20:32;;;;;;;5.60;5.10;;;17.60;99.90;;;;;;5050570;28;20548;-74
2023/05/08 10:22:59;;;;;;;5.90;5.30;;;17.60;99.90;;;;;;5032371;28;20502;-74
2023/05/08 10:25:27;;;;;;;6.10;5.50;;;17.60;99.90;;;;;;5031276;28;20446;-74
2023/05/08 10:28:05;;;;;;;5.93;5.43;;;17.60;99.90;;;;;;5043381;28;20425;-74
2023/05/08 10:30:33;;;;;;;5.90;5.30;;;17.60;99.90;;;;;;5042965;28;20423;-74
2023/05/08 10:33:07;;;;;;;6.10;5.53;;;17.60;99.90;;;;;;5050558;28;20416;-74
2023/05/08 10:35:33;;;;;;;5.40;4.90;;;17.70;99.90;;;;;;5039738;28;20522;-74
2023/05/08 10:38:00;;;;;;;5.17;4.77;;;17.70;99.90;;;;;;5038234;28;20799;-74
2023/05/08 10:40:25;;;;;;;5.43;4.90;;;17.70;99.90;;;;;;5044478;28;20178;-74
2023/05/08 10:42:51;;;;;;;5.40;4.90;;;17.70;99.90;;;;;;5041714;28;20415;-74
2023/05/08 10:45:17;;;;;;;4.17;3.57;;;17.70;99.90;;;;;;5047378;28;20209;-74
2023/05/08 10:48:03;;;;;;;4.13;3.80;;;17.60;99.90;;;;;;5024460;28;20200;-73
2023/05/08 10:50:55;;;;;;;4.33;3.90;;;17.60;99.90;;;;;;5028564;28;21072;-74
2023/05/08 10:53:36;;;;;;;4.30;3.67;;;17.60;99.90;;;;;;5028592;28;20412;-74
2023/05/08 10:56:02;;;;;;;3.90;3.60;;;17.60;99.90;;;;;;5028704;28;21035;-74
2023/05/08 10:58:32;;;;;;;4.67;4.27;;;17.60;99.90;;;;;;5029930;28;20452;-74
2023/05/08 11:01:05;;;;;;;4.40;4.10;;;17.60;99.90;;;;;;5029917;28;20417;-74
2023/05/08 11:03:37;;;;;;;4.00;3.60;;;17.60;99.90;;;;;;5029753;28;20421;-74
2023/05/08 11:06:02;;;;;;;3.97;3.67;;;17.60;99.90;;;;;;5029854;28;20456;-74
2023/05/08 11:08:30;;;;;;;4.50;4.10;;;17.60;99.90;;;;;;5029035;28;20418;-74
2023/05/08 11:10:58;;;;;;;4.13;3.67;;;17.60;99.90;;;;;;5047484;28;20182;-74
2023/05/08 11:13:27;;;;;;;4.73;4.30;;;17.60;99.90;;;;;;5049421;28;20416;-74
2023/05/08 11:15:52;;;;;;;4.10;3.53;;;17.70;99.90;;;;;;5031881;28;20457;-74
2023/05/08 11:18:18;;;;;;;3.33;3.10;;;17.60;99.90;;;;;;5049563;28;20757;-74
2023/05/08 11:20:59;;;;;;;3.60;3.30;;;17.60;99.90;;;;;;5031735;28;20170;-74
2023/05/08 11:23:25;;;;;;;4.73;3.73;;;17.70;99.90;;;;;;5049105;28;20184;-74
2023/05/08 11:26:00;;;;;;;3.87;3.57;;;17.70;99.90;;;;;;5049522;28;20484;-74
2023/05/08 11:28:27;;;;;;;3.77;3.47;;;17.70;99.90;;;;;;5049177;28;20422;-74
2023/05/08 11:30:57;;;;;;;4.53;4.13;;;17.80;99.90;;;;;;5031407;28;20541;-75
2023/05/08 11:33:29;;;;;;;4.50;4.10;;;17.80;99.90;;;;;;5048936;28;20873;-74
2023/05/08 11:36:21;;;;;;;5.63;3.90;;;17.90;99.90;;;;;;5049213;28;20665;-74
2023/05/08 11:39:11;;;;;;;4.00;3.37;;;17.90;99.90;;;;;;5031309;28;20404;-74
2023/05/08 11:41:40;;;;;;;4.00;3.60;;;17.90;99.90;;;;;;5030724;28;20777;-74
2023/05/08 11:44:12;;;;;;;3.90;3.60;;;18.00;99.90;;;;;;5048874;28;20416;-74
2023/05/08 11:46:52;;;;;;;5.93;3.70;;;18.00;99.90;;;;;;5030820;28;20926;-74
2023/05/08 11:49:20;;;;;;;4.33;3.97;;;17.90;99.90;;;;;;5048017;28;20436;-75
2023/05/08 11:51:48;;;;;;;3.80;3.50;;;18.00;99.90;;;;;;5048916;28;20998;-75
2023/05/08 11:54:18;;;;;;;4.10;3.70;;;17.90;99.90;;;;;;5030380;28;20821;-75
2023/05/08 11:56:48;;;;;;;3.67;3.37;;;17.90;99.90;;;;;;5048488;28;20432;-74
2023/05/08 11:59:14;;;;;;;4.80;4.30;;;18.00;99.90;;;;;;5030619;28;20462;-74
2023/05/08 12:01:39;;;;;;;5.03;4.63;;;18.00;99.90;;;;;;5048515;28;20416;-75
2023/05/08 12:04:08;;;;;;;5.30;4.80;;;18.00;99.90;;;;;;5048216;28;20512;-74
2023/05/08 12:06:39;;;;;;;4.97;4.53;;;18.10;99.90;;;;;;5048489;28;20262;-74
2023/05/08 12:09:15;;;;;;;5.20;4.80;;;18.10;99.90;;;;;;5029987;28;20423;-75
2023/05/08 12:11:44;;;;;;;4.10;3.80;;;18.10;99.90;;;;;;5030593;28;20784;-75
2023/05/08 12:14:16;;;;;;;5.40;4.73;;;18.20;99.90;;;;;;5048089;28;20451;-75
2023/05/08 12:16:41;;;;;;;5.30;4.80;;;18.30;99.90;;;;;;5030500;28;20523;-74
2023/05/08 12:19:12;;;;;;;6.23;4.00;;;18.40;99.90;;;;;;5048104;28;20495;-74
2023/05/08 12:21:38;;;;;;;4.63;4.23;;;18.40;99.90;;;;;;5047962;28;20193;-75
2023/05/08 12:24:10;;;;;;;4.93;4.53;;;18.40;99.90;;;;;;5048027;28;20423;-74
2023/05/08 12:26:36;;;;;;;5.50;4.97;;;18.50;99.90;;;;;;5048293;28;20448;-74
2023/05/08 12:29:06;;;;;;;4.90;4.50;;;18.40;99.90;;;;;;5030391;28;20412;-74
2023/05/08 12:31:35;;;;;;;5.30;4.80;;;18.40;99.90;;;;;;5048355;28;20420;-74
2023/05/08 12:34:05;;;;;;;5.53;5.13;;;18.50;99.90;;;;;;5048029;28;20448;-75
2023/05/08 12:36:37;;;;;;;5.10;4.70;;;18.50;99.90;;;;;;5048542;28;20456;-74
2023/05/08 12:39:11;;;;;;;5.10;4.70;;;18.60;99.90;;;;;;5048246;28;20462;-74
2023/05/08 12:41:47;;;;;;;4.80;4.40;;;18.60;99.90;;;;;;5030367;28;20419;-74
2023/05/08 12:44:17;;;;;;;5.00;4.60;;;18.70;99.90;;;;;;5048326;28;20412;-75
2023/05/08 12:46:49;;;;;;;5.13;4.70;;;18.70;99.90;;;;;;5030332;28;20782;-75